createdAt,value
2023-11-23T00:00:37.783Z,537.8
2023-11-23T00:02:16.586Z,587.3
2023-11-23T00:03:55.198Z,587.3
2023-11-23T00:05:33.946Z,587.3
2023-11-23T00:07:12.672Z,587.3
2023-11-23T00:08:51.388Z,537.8
2023-11-23T00:10:30.124Z,537.8
2023-11-23T00:11:37.367Z,537.8
2023-11-23T00:12:44.658Z,537.8
2023-11-23T00:16:52.646Z,587.3
2023-11-23T00:20:09.230Z,537.8
2023-11-23T00:22:04.179Z,587.3
2023-11-23T00:23:42.925Z,587.3
2023-11-23T00:25:21.701Z,537.8
2023-11-23T00:27:00.372Z,587.3
2023-11-23T00:28:07.630Z,537.8
2023-11-23T00:29:14.886Z,537.8
2023-11-23T00:30:53.671Z,537.8
2023-11-23T00:32:32.350Z,537.8
2023-11-23T00:34:11.085Z,537.8
2023-11-23T00:35:49.815Z,587.3
2023-11-23T00:37:28.553Z,537.8
2023-11-23T00:39:07.336Z,587.3
2023-11-23T00:40:46.009Z,537.8
2023-11-23T00:42:24.754Z,537.8
2023-11-23T00:44:03.486Z,537.8
2023-11-23T00:45:10.733Z,537.8
2023-11-23T00:46:17.995Z,587.3
2023-11-23T00:47:56.708Z,537.8
2023-11-23T00:49:35.439Z,537.8
2023-11-23T00:51:14.208Z,537.8
2023-11-23T00:52:52.902Z,537.8
2023-11-23T00:54:31.663Z,537.8
2023-11-23T00:56:10.450Z,537.8
2023-11-23T00:57:49.105Z,537.8
2023-11-23T01:01:38.730Z,537.8
2023-11-23T01:02:45.632Z,537.8
2023-11-23T01:03:52.371Z,537.8
2023-11-23T01:04:59.108Z,537.8
2023-11-23T01:06:05.874Z,537.8
2023-11-23T01:07:12.636Z,537.8
2023-11-23T01:08:19.423Z,587.3
2023-11-23T01:09:26.263Z,537.8
2023-11-23T01:10:32.967Z,537.8
2023-11-23T01:11:39.751Z,537.8
2023-11-23T01:12:46.522Z,537.8
2023-11-23T01:13:53.277Z,537.8
2023-11-23T01:15:00.066Z,537.8
2023-11-23T01:16:06.876Z,587.3
2023-11-23T01:17:13.608Z,537.8
2023-11-23T01:18:20.374Z,537.8
2023-11-23T01:19:27.158Z,537.8
2023-11-23T01:20:33.922Z,537.8
2023-11-23T01:21:40.700Z,537.8
2023-11-23T01:22:47.468Z,537.8
2023-11-23T01:23:54.245Z,587.2
2023-11-23T01:25:00.867Z,537.8
2023-11-23T01:26:07.597Z,537.8
2023-11-23T01:27:14.308Z,537.8
2023-11-23T01:28:21.026Z,537.8
2023-11-23T01:29:27.757Z,587.2
2023-11-23T01:31:39.979Z,587.2
2023-11-23T01:33:18.723Z,537.8
2023-11-23T01:34:31.798Z,537.8
2023-11-23T01:35:39.011Z,537.8
2023-11-23T01:37:17.647Z,587.2
2023-11-23T01:38:56.397Z,587.2
2023-11-23T01:40:35.131Z,537.8
2023-11-23T01:42:13.868Z,537.8
2023-11-23T01:43:52.608Z,537.8
2023-11-23T01:45:31.355Z,537.8
2023-11-23T01:47:10.114Z,537.8
2023-11-23T01:48:48.866Z,537.8
2023-11-23T01:50:27.619Z,537.8
2023-11-23T01:52:07.356Z,537.8
2023-11-23T01:55:23.848Z,537.8
2023-11-23T01:57:10.703Z,537.8
2023-11-23T01:58:49.412Z,537.8
2023-11-23T02:00:28.163Z,537.8
2023-11-23T02:02:06.906Z,537.8
2023-11-23T02:03:45.762Z,587.2
2023-11-23T02:05:24.390Z,537.8
2023-11-23T02:07:03.137Z,537.8
2023-11-23T02:08:42.024Z,537.8
2023-11-23T02:10:20.656Z,537.8
2023-11-23T02:11:59.346Z,537.8
2023-11-23T02:13:38.077Z,537.8
2023-11-23T02:15:16.842Z,537.8
2023-11-23T02:16:24.036Z,537.8
2023-11-23T02:17:31.263Z,537.8
2023-11-23T02:19:09.971Z,537.8
2023-11-23T02:20:48.710Z,587.1
2023-11-23T02:22:27.451Z,537.8
2023-11-23T02:24:06.226Z,537.8
2023-11-23T02:25:44.945Z,537.8
2023-11-23T02:27:23.668Z,537.8
2023-11-23T02:29:02.411Z,537.8
2023-11-23T02:30:41.154Z,537.8
2023-11-23T02:32:19.896Z,537.8
2023-11-23T02:33:27.086Z,537.8
2023-11-23T02:36:27.950Z,537.8
2023-11-23T02:39:45.369Z,537.8
2023-11-23T02:43:01.918Z,537.8
2023-11-23T02:44:48.775Z,537.8
2023-11-23T02:46:27.500Z,537.8
2023-11-23T02:48:06.182Z,587.1
2023-11-23T02:49:44.917Z,537.8
2023-11-23T02:50:52.114Z,537.8
2023-11-23T02:51:59.365Z,537.8
2023-11-23T02:53:38.054Z,537.8
2023-11-23T02:55:16.844Z,537.8
2023-11-23T02:56:55.537Z,537.8
2023-11-23T02:58:34.275Z,537.8
2023-11-23T03:00:13.028Z,537.8
2023-11-23T03:01:51.845Z,537.8
2023-11-23T03:03:30.507Z,537.8
2023-11-23T03:05:09.269Z,537.8
2023-11-23T03:06:47.985Z,537.8
2023-11-23T03:07:55.183Z,537.8
2023-11-23T03:09:02.423Z,537.8
2023-11-23T03:10:41.123Z,537.8
2023-11-23T03:12:19.868Z,537.8
2023-11-23T03:13:58.599Z,537.8
2023-11-23T03:15:37.346Z,537.8
2023-11-23T03:17:16.086Z,537.8
2023-11-23T03:18:54.836Z,537.8
2023-11-23T03:20:33.582Z,537.8
2023-11-23T03:24:23.197Z,537.8
2023-11-23T03:25:30.000Z,537.8
2023-11-23T03:26:36.693Z,537.8
2023-11-23T03:27:43.406Z,537.8
2023-11-23T03:28:50.123Z,537.8
2023-11-23T03:29:56.963Z,537.8
2023-11-23T03:31:03.562Z,537.8
2023-11-23T03:32:10.296Z,537.8
2023-11-23T03:33:17.005Z,537.8
2023-11-23T03:34:23.718Z,537.8
2023-11-23T03:35:30.458Z,537.8
2023-11-23T03:36:37.168Z,537.8
2023-11-23T03:37:43.892Z,537.8
2023-11-23T03:38:50.607Z,537.8
2023-11-23T03:39:57.335Z,587.1
2023-11-23T03:41:04.043Z,587.1
2023-11-23T03:42:10.774Z,587.1
2023-11-23T03:43:17.484Z,537.8
2023-11-23T03:44:24.198Z,537.8
2023-11-23T03:45:30.926Z,537.8
2023-11-23T03:46:37.662Z,537.8
2023-11-23T03:47:44.433Z,537.8
2023-11-23T03:48:51.214Z,537.8
2023-11-23T03:49:57.929Z,537.8
2023-11-23T03:51:04.650Z,537.8
2023-11-23T03:52:11.417Z,537.8
2023-11-23T03:54:23.669Z,537.8
2023-11-23T03:56:02.469Z,587.1
2023-11-23T03:57:16.202Z,537.8
2023-11-23T03:58:23.396Z,537.8
2023-11-23T04:00:02.147Z,587.1
2023-11-23T04:01:40.882Z,587.2
2023-11-23T04:03:19.628Z,537.8
2023-11-23T04:04:58.359Z,537.8
2023-11-23T04:06:37.101Z,587.2
2023-11-23T04:08:15.858Z,537.8
2023-11-23T04:09:54.580Z,537.8
2023-11-23T04:11:33.320Z,537.8
2023-11-23T04:13:12.070Z,537.8
2023-11-23T04:14:51.806Z,537.8
2023-11-23T04:18:08.304Z,537.8
2023-11-23T04:19:55.138Z,537.8
2023-11-23T04:21:33.877Z,537.8
2023-11-23T04:23:12.612Z,587.2
2023-11-23T04:24:51.430Z,537.8
2023-11-23T04:26:30.098Z,537.8
2023-11-23T04:28:08.834Z,537.8
2023-11-23T04:29:47.580Z,537.8
2023-11-23T04:31:26.312Z,537.8
2023-11-23T04:33:05.049Z,537.8
2023-11-23T04:34:43.798Z,537.8
2023-11-23T04:36:22.543Z,537.8
2023-11-23T04:38:01.287Z,537.8
2023-11-23T04:39:08.495Z,537.8
2023-11-23T04:40:15.684Z,587.2
2023-11-23T04:41:54.424Z,537.8
2023-11-23T04:43:33.167Z,537.8
2023-11-23T04:45:11.979Z,537.8
2023-11-23T04:46:50.652Z,537.8
2023-11-23T04:48:29.390Z,537.8
2023-11-23T04:50:08.148Z,537.8
2023-11-23T04:51:46.838Z,537.8
2023-11-23T04:53:25.567Z,537.8
2023-11-23T04:55:04.393Z,537.8
2023-11-23T04:56:11.555Z,537.8
2023-11-23T04:59:12.341Z,596
2023-11-23T05:02:28.223Z,537.8
2023-11-23T05:03:35.003Z,537.8
2023-11-23T05:04:41.763Z,537.8
2023-11-23T05:05:48.554Z,587.3
2023-11-23T05:06:55.316Z,537.8
2023-11-23T05:08:02.092Z,587.3
2023-11-23T05:09:08.867Z,587.3
2023-11-23T05:10:15.620Z,587.3
2023-11-23T05:11:22.410Z,587.3
2023-11-23T05:12:29.188Z,587.3
2023-11-23T05:13:35.958Z,587.3
2023-11-23T05:14:42.732Z,537.8
2023-11-23T05:15:49.506Z,587.3
2023-11-23T05:16:56.272Z,587.4
2023-11-23T05:18:03.050Z,587.3
2023-11-23T05:19:09.829Z,537.8
2023-11-23T05:20:16.871Z,537.8
2023-11-23T05:21:23.434Z,597.3
2023-11-23T05:22:30.150Z,597.7
2023-11-23T05:23:36.874Z,595.2
2023-11-23T05:24:43.671Z,598.5
2023-11-23T05:25:50.314Z,598.5
2023-11-23T05:26:57.047Z,596.5
2023-11-23T05:28:03.770Z,597.4
2023-11-23T05:29:10.497Z,598
2023-11-23T05:30:44.196Z,587.5
2023-11-23T05:31:51.403Z,587.4
2023-11-23T05:33:30.136Z,587.5
2023-11-23T05:35:08.872Z,587.5
2023-11-23T05:36:47.631Z,587.5
2023-11-23T05:38:26.363Z,587.5
2023-11-23T05:40:05.098Z,587.5
2023-11-23T05:41:43.909Z,587.5
2023-11-23T05:43:22.595Z,587.5
2023-11-23T05:45:01.315Z,587.5
2023-11-23T05:46:40.053Z,587.5
2023-11-23T05:47:47.300Z,587.5
2023-11-23T05:48:54.559Z,587.5
2023-11-23T05:53:02.604Z,587.5
2023-11-23T05:56:19.188Z,587.5
2023-11-23T05:58:14.161Z,587.5
2023-11-23T05:59:52.930Z,587.5
2023-11-23T06:01:31.635Z,587.5
2023-11-23T06:03:10.451Z,587.5
2023-11-23T06:04:17.637Z,587.5
2023-11-23T06:05:24.879Z,587.5
2023-11-23T06:07:03.638Z,587.5
2023-11-23T06:08:42.360Z,587.5
2023-11-23T06:10:21.117Z,587.4
2023-11-23T06:11:59.846Z,587.4
2023-11-23T06:13:38.600Z,587.4
2023-11-23T06:15:17.340Z,587.4
2023-11-23T06:16:56.077Z,587.4
2023-11-23T06:18:34.827Z,587.4
2023-11-23T06:20:13.553Z,587.4
2023-11-23T06:21:20.809Z,587.4
2023-11-23T06:22:27.961Z,587.4
2023-11-23T06:24:06.690Z,587.4
2023-11-23T06:25:45.436Z,587.4
2023-11-23T06:27:24.184Z,587.4
2023-11-23T06:29:03.027Z,587.4
2023-11-23T06:30:41.739Z,537.8
2023-11-23T06:32:20.707Z,537.8
2023-11-23T06:33:59.361Z,587.4
2023-11-23T06:37:49.122Z,587.4
2023-11-23T06:38:55.364Z,587.4
2023-11-23T06:40:01.953Z,587.4
2023-11-23T06:41:08.732Z,587.4
2023-11-23T06:42:14.968Z,587.4
2023-11-23T06:43:21.623Z,587.4
2023-11-23T06:44:28.211Z,587.4
2023-11-23T06:45:34.582Z,597.5
2023-11-23T06:46:40.937Z,599
2023-11-23T06:47:47.463Z,598.6
2023-11-23T06:48:54.053Z,597.5
2023-11-23T06:50:00.306Z,598.4
2023-11-23T06:51:07.164Z,598.9
2023-11-23T06:52:13.522Z,599
2023-11-23T06:53:19.845Z,598.7
2023-11-23T06:54:26.465Z,599.8
2023-11-23T06:55:32.973Z,596.9
2023-11-23T06:56:39.450Z,598.8
2023-11-23T06:57:45.786Z,596.4
2023-11-23T06:58:52.503Z,597.7
2023-11-23T06:59:58.963Z,598.6
2023-11-23T07:01:05.444Z,599.1
2023-11-23T07:02:11.918Z,598.1
2023-11-23T07:03:18.375Z,596.6
2023-11-23T07:04:24.981Z,599.2
2023-11-23T07:05:31.209Z,597.2
2023-11-23T07:06:38.208Z,596.6
2023-11-23T07:07:45.032Z,597.8
2023-11-23T07:08:51.417Z,601.6
2023-11-23T07:09:58.197Z,596.5
2023-11-23T07:11:05.229Z,597.8
2023-11-23T07:12:12.041Z,597.3
2023-11-23T07:13:18.790Z,598.6
2023-11-23T07:14:25.295Z,599.2
2023-11-23T07:15:32.407Z,598.7
2023-11-23T07:16:39.088Z,597.2
2023-11-23T07:17:45.934Z,598.1
2023-11-23T07:18:52.588Z,598.1
2023-11-23T07:19:59.608Z,598.3
2023-11-23T07:22:37.879Z,596.4
2023-11-23T07:24:16.722Z,597.4
2023-11-23T07:25:55.486Z,596.6
2023-11-23T07:27:34.233Z,598.8
2023-11-23T07:28:41.409Z,596.3
2023-11-23T07:29:48.517Z,599.2
2023-11-23T07:31:27.079Z,598.5
2023-11-23T07:33:06.100Z,598
2023-11-23T07:34:44.655Z,597.6
2023-11-23T07:36:23.449Z,596.6
2023-11-23T07:38:02.333Z,599.2
2023-11-23T07:39:41.093Z,597.7
2023-11-23T07:41:19.858Z,598.4
2023-11-23T07:45:09.453Z,594.7
2023-11-23T07:46:16.248Z,598.7
2023-11-23T07:47:23.135Z,598.7
2023-11-23T07:48:29.828Z,595.8
2023-11-23T07:49:36.611Z,599.5
2023-11-23T07:50:43.397Z,595.9
2023-11-23T07:51:50.147Z,598.2
2023-11-23T07:52:57.063Z,597.3
2023-11-23T07:54:03.697Z,596.2
2023-11-23T07:55:10.573Z,597.2
2023-11-23T07:56:17.196Z,596.3
2023-11-23T07:57:23.848Z,596.2
2023-11-23T07:58:30.706Z,598
2023-11-23T07:59:37.466Z,597.1
2023-11-23T08:00:43.932Z,597.1
2023-11-23T08:01:50.820Z,596.9
2023-11-23T08:02:57.626Z,596.8
2023-11-23T08:04:04.453Z,598.6
2023-11-23T08:05:11.147Z,598.6
2023-11-23T08:06:17.990Z,598.9
2023-11-23T08:07:24.473Z,598.7
2023-11-23T08:08:31.621Z,600.1
2023-11-23T08:09:38.192Z,598.2
2023-11-23T08:10:44.869Z,598.7
2023-11-23T08:11:51.406Z,598
2023-11-23T08:12:58.442Z,600.1
2023-11-23T08:15:10.693Z,599.6
2023-11-23T08:16:49.430Z,598.7
2023-11-23T08:18:02.441Z,598.6
2023-11-23T08:19:09.535Z,598
2023-11-23T08:20:48.075Z,597.7
2023-11-23T08:22:27.079Z,600.1
2023-11-23T08:24:05.802Z,600.1
2023-11-23T08:25:44.641Z,597
2023-11-23T08:27:23.301Z,599.4
2023-11-23T08:29:01.961Z,597.7
2023-11-23T08:32:19.305Z,599
2023-11-23T08:33:58.241Z,598.3
2023-11-23T08:35:38.017Z,597.4
2023-11-23T08:38:55.389Z,599.9
2023-11-23T08:42:12.768Z,599.3
2023-11-23T08:45:29.348Z,599.2
2023-11-23T08:47:16.087Z,599.1
2023-11-23T08:48:54.990Z,599.9
2023-11-23T08:50:33.610Z,598.5
2023-11-23T08:52:12.378Z,597.5
2023-11-23T08:53:51.248Z,599.5
2023-11-23T08:55:29.789Z,599.1
2023-11-23T08:57:08.574Z,598
2023-11-23T08:58:47.435Z,598.9
2023-11-23T08:59:54.658Z,600.9
2023-11-23T09:01:01.711Z,599.7
2023-11-23T09:02:40.340Z,599.2
2023-11-23T09:04:19.253Z,598.3
2023-11-23T09:05:58.055Z,598.7
2023-11-23T09:07:36.824Z,597.8
2023-11-23T09:09:15.534Z,599.1
2023-11-23T09:10:54.345Z,598.8
2023-11-23T09:12:33.133Z,598
2023-11-23T09:14:11.529Z,598.5
2023-11-23T09:15:50.568Z,598.8
2023-11-23T09:16:57.742Z,598.6
2023-11-23T09:18:04.830Z,598
2023-11-23T09:19:43.478Z,599.7
2023-11-23T09:21:22.425Z,600.5
2023-11-23T09:23:01.072Z,599.4
2023-11-23T09:27:09.079Z,599.2
2023-11-23T09:30:25.579Z,598
2023-11-23T09:32:12.497Z,597.8
2023-11-23T09:33:24.576Z,600.9
2023-11-23T09:34:31.922Z,597.8
2023-11-23T09:36:10.573Z,600.2
2023-11-23T09:37:49.262Z,599
2023-11-23T09:39:28.078Z,598.4
2023-11-23T09:41:06.688Z,597.7
2023-11-23T09:42:45.638Z,598.9
2023-11-23T09:44:24.439Z,599.9
2023-11-23T09:46:03.127Z,599.7
2023-11-23T09:47:41.785Z,601.6
2023-11-23T09:49:20.539Z,598.7
2023-11-23T09:50:27.785Z,598.8
2023-11-23T09:51:34.735Z,601.2
2023-11-23T09:53:13.801Z,600.4
2023-11-23T09:54:52.541Z,600.3
2023-11-23T09:56:31.279Z,597.7
2023-11-23T09:58:09.964Z,598.3
2023-11-23T09:59:48.762Z,601.4
2023-11-23T10:01:27.275Z,600.7
2023-11-23T10:03:06.050Z,600
2023-11-23T10:04:44.983Z,600.2
2023-11-23T10:06:23.504Z,599.6
2023-11-23T10:07:30.711Z,599.3
2023-11-23T10:10:31.686Z,600.1
2023-11-23T10:13:49.016Z,598.6
2023-11-23T10:17:06.568Z,600.3
2023-11-23T10:20:23.072Z,601
2023-11-23T10:22:09.660Z,599.5
2023-11-23T10:23:48.678Z,599.9
2023-11-23T10:24:55.596Z,599.4
2023-11-23T10:26:03.048Z,601.9
2023-11-23T10:27:41.813Z,600.6
2023-11-23T10:29:20.286Z,599.6
2023-11-23T10:30:59.394Z,602.1
2023-11-23T10:32:38.089Z,599.7
2023-11-23T10:34:16.835Z,600.2
2023-11-23T10:35:55.356Z,599.9
2023-11-23T10:37:34.341Z,601.9
2023-11-23T10:39:13.135Z,597.7
2023-11-23T10:40:51.523Z,598.7
2023-11-23T10:41:59.002Z,599.7
2023-11-23T10:43:06.275Z,598.8
2023-11-23T10:44:44.982Z,601.4
2023-11-23T10:48:02.507Z,600.6
2023-11-23T10:49:41.181Z,598.4
2023-11-23T10:51:20.001Z,599.7
2023-11-23T10:52:58.574Z,602
2023-11-23T10:54:37.135Z,600.2
2023-11-23T10:56:15.925Z,600
2023-11-23T10:57:54.852Z,601.5
2023-11-23T10:59:34.692Z,600.6
2023-11-23T11:02:51.850Z,599.8
2023-11-23T11:06:07.805Z,600.6
2023-11-23T11:07:14.559Z,600.1
2023-11-23T11:08:21.562Z,599.1
2023-11-23T11:09:28.196Z,599.7
2023-11-23T11:10:34.960Z,599.6
2023-11-23T11:11:41.668Z,600.9
2023-11-23T11:12:48.233Z,599.4
2023-11-23T11:13:54.982Z,599.5
2023-11-23T11:15:01.624Z,600.1
2023-11-23T11:16:08.374Z,600.5
2023-11-23T11:17:15.322Z,598.2
2023-11-23T11:18:22.072Z,600.9
2023-11-23T11:19:28.665Z,598.8
2023-11-23T11:20:35.145Z,599.7
2023-11-23T11:21:42.053Z,600.1
2023-11-23T11:22:48.828Z,600.3
2023-11-23T11:23:55.573Z,601.2
2023-11-23T11:25:02.387Z,600
2023-11-23T11:26:08.763Z,597.7
2023-11-23T11:27:15.810Z,601.4
2023-11-23T11:28:22.516Z,600.6
2023-11-23T11:29:29.194Z,600.2
2023-11-23T11:30:35.839Z,600
2023-11-23T11:31:42.880Z,600.5
2023-11-23T11:34:23.464Z,600.7
2023-11-23T11:36:02.156Z,600.1
2023-11-23T11:37:40.745Z,600.7
2023-11-23T11:39:19.670Z,600.9
2023-11-23T11:40:58.169Z,599.6
2023-11-23T11:42:05.515Z,601.8
2023-11-23T11:43:12.552Z,601.1
2023-11-23T11:44:51.664Z,600.8
2023-11-23T11:46:29.916Z,599.9
2023-11-23T11:48:09.045Z,600
2023-11-23T11:49:47.590Z,598.9
2023-11-23T11:51:26.329Z,598.5
2023-11-23T11:53:05.042Z,598.4
2023-11-23T11:57:13.104Z,599.1
2023-11-23T11:58:32.092Z,599.4
2023-11-23T12:00:29.069Z,599.7
2023-11-23T12:01:35.673Z,600.1
2023-11-23T12:02:42.647Z,600.9
2023-11-23T12:03:49.240Z,598.9
2023-11-23T12:04:55.829Z,599.6
2023-11-23T12:06:02.464Z,601.4
2023-11-23T12:07:09.189Z,601.9
2023-11-23T12:08:16.154Z,599
2023-11-23T12:09:22.744Z,598.6
2023-11-23T12:10:29.534Z,598.4
2023-11-23T12:11:36.317Z,599.1
2023-11-23T12:13:49.941Z,599.2
2023-11-23T12:14:56.461Z,599.4
2023-11-23T12:16:03.318Z,600.2
2023-11-23T12:17:09.722Z,601
2023-11-23T12:18:16.726Z,601.1
2023-11-23T12:19:23.399Z,600.2
2023-11-23T12:20:30.042Z,602.5
2023-11-23T12:21:36.882Z,600.5
2023-11-23T12:22:43.623Z,600.4
2023-11-23T12:23:50.263Z,599.5
2023-11-23T12:24:57.145Z,600.5
2023-11-23T12:26:03.818Z,600.2
2023-11-23T12:27:10.567Z,597.2
2023-11-23T12:28:17.326Z,602.1
2023-11-23T12:29:24.037Z,600.7
2023-11-23T12:30:30.667Z,601.3
2023-11-23T12:31:37.199Z,600.6
2023-11-23T12:32:44.181Z,601.2
2023-11-23T12:34:57.502Z,599.7
2023-11-23T12:36:04.215Z,600.5
2023-11-23T12:37:11.075Z,599.5
2023-11-23T12:38:17.749Z,599.2
2023-11-23T12:39:24.525Z,599.5
2023-11-23T12:40:31.219Z,601.5
2023-11-23T12:42:43.411Z,602.8
2023-11-23T12:43:50.579Z,599.9
2023-11-23T12:44:57.835Z,600.5
2023-11-23T12:46:36.445Z,601.1
2023-11-23T12:48:15.152Z,601.1
2023-11-23T12:49:53.971Z,600.5
2023-11-23T12:51:32.958Z,600
2023-11-23T12:53:11.487Z,599.3
2023-11-23T12:54:50.348Z,599.8
2023-11-23T12:56:28.981Z,600.2
2023-11-23T12:58:07.838Z,601.9
2023-11-23T12:59:46.566Z,601.8
2023-11-23T13:00:53.760Z,601.4
2023-11-23T13:03:54.556Z,599.3
2023-11-23T13:07:11.167Z,600.5
2023-11-23T13:08:57.999Z,598.4
2023-11-23T13:10:36.742Z,599.4
2023-11-23T13:12:15.308Z,601.2
2023-11-23T13:13:54.114Z,599.9
2023-11-23T13:15:32.928Z,599.3
2023-11-23T13:17:11.728Z,599.4
2023-11-23T13:18:18.859Z,600.9
2023-11-23T13:19:26.133Z,601.8
2023-11-23T13:21:04.828Z,599
2023-11-23T13:22:43.579Z,599.5
2023-11-23T13:24:22.064Z,599.6
2023-11-23T13:26:01.085Z,599
2023-11-23T13:27:39.718Z,598.1
2023-11-23T13:29:18.560Z,599.7
2023-11-23T13:30:57.330Z,600.8
2023-11-23T13:32:35.783Z,600.4
2023-11-23T13:34:14.723Z,601.1
2023-11-23T13:35:21.877Z,601
2023-11-23T13:36:28.993Z,602.1
2023-11-23T13:38:07.941Z,599.6
2023-11-23T13:39:46.670Z,601.7
2023-11-23T13:43:04.127Z,600.2
2023-11-23T13:44:42.837Z,598.2
2023-11-23T13:48:50.998Z,601.6
2023-11-23T13:51:49.888Z,599.5
2023-11-23T13:52:57.433Z,599.1
2023-11-23T13:54:44.199Z,599.5
2023-11-23T13:56:22.937Z,600.5
2023-11-23T13:58:01.664Z,601.6
2023-11-23T13:59:40.484Z,600.3
2023-11-23T14:01:18.883Z,600.2
2023-11-23T14:02:57.967Z,600.4
2023-11-23T14:04:36.671Z,601
2023-11-23T14:06:15.409Z,600.4
2023-11-23T14:07:53.861Z,601.3
2023-11-23T14:09:32.599Z,599.1
2023-11-23T14:11:11.379Z,601
2023-11-23T14:14:28.950Z,601.7
2023-11-23T14:16:07.592Z,600.8
2023-11-23T14:17:46.348Z,599.3
2023-11-23T14:19:25.082Z,599.8
2023-11-23T14:21:03.834Z,600.9
2023-11-23T14:22:42.559Z,598.1
2023-11-23T14:24:21.321Z,600.8
2023-11-23T14:25:28.571Z,599.8
2023-11-23T14:26:35.723Z,601.9
2023-11-23T14:28:14.447Z,600.1
2023-11-23T14:29:53.214Z,600.1
2023-11-23T14:31:31.932Z,600.7
2023-11-23T14:35:39.962Z,601.6
2023-11-23T14:38:57.422Z,600.9
2023-11-23T14:41:56.574Z,601.5
2023-11-23T14:43:04.028Z,600.6
2023-11-23T14:44:50.757Z,599.4
2023-11-23T14:48:08.260Z,599.6
2023-11-23T14:49:46.982Z,600.4
2023-11-23T14:51:25.740Z,602.5
2023-11-23T14:53:04.469Z,600
2023-11-23T14:54:43.210Z,600.5
2023-11-23T14:56:21.992Z,601.8
2023-11-23T14:58:00.680Z,602.7
2023-11-23T14:59:39.419Z,601.9
2023-11-23T15:01:18.217Z,599.4
2023-11-23T15:02:57.077Z,600.1
2023-11-23T15:04:35.640Z,601.3
2023-11-23T15:06:14.390Z,598.6
2023-11-23T15:07:53.188Z,602.2
2023-11-23T15:09:31.857Z,599.6
2023-11-23T15:11:10.595Z,601
2023-11-23T15:12:49.378Z,600.1
2023-11-23T15:14:28.147Z,601.1
2023-11-23T15:15:35.360Z,600.3
2023-11-23T15:16:42.600Z,601.6
2023-11-23T15:18:21.344Z,600.5
2023-11-23T15:20:00.090Z,599.5
2023-11-23T15:21:38.822Z,599.2
2023-11-23T15:25:46.862Z,600.7
2023-11-23T15:29:04.304Z,601.2
2023-11-23T15:32:03.355Z,600.8
2023-11-23T15:33:11.957Z,601.6
2023-11-23T15:36:28.375Z,599.8
2023-11-23T15:38:15.202Z,600.5
2023-11-23T15:39:53.935Z,599.2
2023-11-23T15:41:32.674Z,587.7
2023-11-23T15:43:11.421Z,587.7
2023-11-23T15:44:50.158Z,587.7
2023-11-23T15:46:28.896Z,587.7
2023-11-23T15:48:07.633Z,587.7
2023-11-23T15:49:46.386Z,587.7
2023-11-23T15:51:25.168Z,587.7
2023-11-23T15:53:03.862Z,587.7
2023-11-23T15:54:42.610Z,587.7
2023-11-23T15:56:21.343Z,587.7
2023-11-23T15:58:00.089Z,587.7
2023-11-23T15:59:38.827Z,587.7
2023-11-23T16:01:17.558Z,587.7
2023-11-23T16:02:56.305Z,587.7
2023-11-23T16:04:35.131Z,587.7
2023-11-23T16:05:42.434Z,587.7
2023-11-23T16:06:49.547Z,587.7
2023-11-23T16:08:28.308Z,587.7
2023-11-23T16:10:07.033Z,587.7
2023-11-23T16:11:45.774Z,587.7
2023-11-23T16:13:24.526Z,587.7
2023-11-23T16:15:03.253Z,587.7
2023-11-23T16:19:11.302Z,537.8
2023-11-23T16:22:09.398Z,587.7
2023-11-23T16:23:16.614Z,587.7
2023-11-23T16:24:55.372Z,587.7
2023-11-23T16:26:34.110Z,587.7
2023-11-23T16:28:12.837Z,587.7
2023-11-23T16:29:51.641Z,602.3
2023-11-23T16:31:30.323Z,587.7
2023-11-23T16:33:09.050Z,587.7
2023-11-23T16:34:47.796Z,587.7
2023-11-23T16:36:26.567Z,587.7
2023-11-23T16:38:05.302Z,587.7
2023-11-23T16:39:44.020Z,587.7
2023-11-23T16:40:51.276Z,587.7
2023-11-23T16:41:58.535Z,587.7
2023-11-23T16:43:37.257Z,587.7
2023-11-23T16:45:16.005Z,587.7
2023-11-23T16:46:54.750Z,537.8
2023-11-23T16:48:33.484Z,587.7
2023-11-23T16:50:12.227Z,587.7
2023-11-23T16:51:50.971Z,587.7
2023-11-23T16:53:29.704Z,587.7
2023-11-23T16:55:08.454Z,587.7
2023-11-23T16:56:47.222Z,587.7
2023-11-23T16:57:54.468Z,587.7
2023-11-23T16:59:01.718Z,587.7
2023-11-23T17:03:09.779Z,587.7
2023-11-23T17:06:27.249Z,587.7
2023-11-23T17:09:43.698Z,587.7
2023-11-23T17:11:30.740Z,587.7
2023-11-23T17:13:09.250Z,587.7
2023-11-23T17:14:21.450Z,587.7
2023-11-23T17:15:28.695Z,587.7
2023-11-23T17:17:07.446Z,587.7
2023-11-23T17:18:46.177Z,587.7
2023-11-23T17:20:24.929Z,587.7
2023-11-23T17:22:03.667Z,587.7
2023-11-23T17:23:42.395Z,587.6
2023-11-23T17:25:21.147Z,587.6
2023-11-23T17:26:59.899Z,587.6
2023-11-23T17:28:38.623Z,587.6
2023-11-23T17:30:17.438Z,587.6
2023-11-23T17:31:24.621Z,587.6
2023-11-23T17:32:31.883Z,587.6
2023-11-23T17:34:10.626Z,587.6
2023-11-23T17:35:49.355Z,587.6
2023-11-23T17:37:28.077Z,587.6
2023-11-23T17:39:06.825Z,587.6
2023-11-23T17:42:24.321Z,597.9
2023-11-23T17:44:03.055Z,598.5
2023-11-23T17:47:20.534Z,603.4
2023-11-23T17:49:00.300Z,587.6
2023-11-23T17:52:17.709Z,587.6
2023-11-23T17:55:35.145Z,587.7
2023-11-23T17:58:52.562Z,587.6
2023-11-23T18:02:09.978Z,587.6
2023-11-23T18:05:27.409Z,587.7
2023-11-23T18:08:43.323Z,587.7
2023-11-23T18:09:50.117Z,587.6
2023-11-23T18:10:56.898Z,587.7
2023-11-23T18:12:03.670Z,587.7
2023-11-23T18:13:10.454Z,587.7
2023-11-23T18:14:17.227Z,587.7
2023-11-23T18:15:24.007Z,587.7
2023-11-23T18:16:30.789Z,587.7
2023-11-23T18:17:37.572Z,587.7
2023-11-23T18:18:44.346Z,587.7
2023-11-23T18:19:51.135Z,601.7
2023-11-23T18:20:57.914Z,587.7
2023-11-23T18:22:04.690Z,587.7
2023-11-23T18:23:11.466Z,587.7
2023-11-23T18:24:18.242Z,587.7
2023-11-23T18:25:25.021Z,587.7
2023-11-23T18:26:31.804Z,587.7
2023-11-23T18:27:38.593Z,587.7
2023-11-23T18:28:45.375Z,587.7
2023-11-23T18:29:52.185Z,587.7
2023-11-23T18:30:58.915Z,587.7
2023-11-23T18:32:05.687Z,587.7
2023-11-23T18:33:12.463Z,587.7
2023-11-23T18:34:19.259Z,587.7
2023-11-23T18:35:26.048Z,587.7
2023-11-23T18:39:12.958Z,587.7
2023-11-23T18:40:20.183Z,587.7
2023-11-23T18:41:58.928Z,587.7
2023-11-23T18:43:37.669Z,587.7
2023-11-23T18:45:16.458Z,587.7
2023-11-23T18:46:55.159Z,587.7
2023-11-23T18:48:33.885Z,550.6
2023-11-23T18:50:12.629Z,537.8
2023-11-23T18:51:51.371Z,587.7
2023-11-23T18:53:30.101Z,587.7
2023-11-23T18:55:08.841Z,587.7
2023-11-23T18:56:16.092Z,587.7
2023-11-23T18:59:16.881Z,587.7
2023-11-23T19:02:34.379Z,587.7
2023-11-23T19:05:50.217Z,587.7
2023-11-23T19:06:57.016Z,587.7
2023-11-23T19:08:03.778Z,587.7
2023-11-23T19:09:10.568Z,587.7
2023-11-23T19:10:17.327Z,587.7
2023-11-23T19:11:24.113Z,587.7
2023-11-23T19:12:30.906Z,587.7
2023-11-23T19:13:37.678Z,587.7
2023-11-23T19:14:44.461Z,587.7
2023-11-23T19:15:51.278Z,587.7
2023-11-23T19:16:58.064Z,537.8
2023-11-23T19:18:04.799Z,587.7
2023-11-23T19:19:11.585Z,587.7
2023-11-23T19:20:18.352Z,587.7
2023-11-23T19:21:25.137Z,587.7
2023-11-23T19:22:31.916Z,587.7
2023-11-23T19:23:38.696Z,587.7
2023-11-23T19:24:45.472Z,587.7
2023-11-23T19:25:52.266Z,587.7
2023-11-23T19:26:59.031Z,587.7
2023-11-23T19:28:05.827Z,587.7
2023-11-23T19:29:12.591Z,587.7
2023-11-23T19:30:19.452Z,587.7
2023-11-23T19:31:26.190Z,587.7
2023-11-23T19:32:32.972Z,587.7
2023-11-23T19:34:45.153Z,600.8
2023-11-23T19:36:23.899Z,587.7
2023-11-23T19:38:02.639Z,587.7
2023-11-23T19:39:40.199Z,587.7
2023-11-23T19:40:47.446Z,587.7
2023-11-23T19:42:26.184Z,587.7
2023-11-23T19:44:04.968Z,587.7
2023-11-23T19:45:43.799Z,587.7
2023-11-23T19:47:22.419Z,587.7
2023-11-23T19:49:01.144Z,587.7
2023-11-23T19:50:39.953Z,587.7
2023-11-23T19:52:18.631Z,602.5
2023-11-23T19:53:57.366Z,587.7
2023-11-23T19:56:08.173Z,587.8
2023-11-23T19:58:03.902Z,587.7
2023-11-23T20:00:17.470Z,587.7
2023-11-23T20:01:24.298Z,587.7
2023-11-23T20:02:31.071Z,587.7
2023-11-23T20:03:37.802Z,587.7
2023-11-23T20:04:44.577Z,587.7
2023-11-23T20:05:51.547Z,587.7
2023-11-23T20:06:58.143Z,587.7
2023-11-23T20:08:04.921Z,587.7
2023-11-23T20:09:11.702Z,587.8
2023-11-23T20:10:18.495Z,587.8
2023-11-23T20:11:25.268Z,587.8
2023-11-23T20:12:32.076Z,587.7
2023-11-23T20:13:38.810Z,587.8
2023-11-23T20:14:45.623Z,587.8
2023-11-23T20:15:52.377Z,587.8